sensor_id;sensor_type;location;lat;lon;timestamp;temperature;humidity
17998;DHT22;9124;48.144;17.098;2022-12-07T00:00:21;5.00;99.90
17998;DHT22;9124;48.144;17.098;2022-12-07T00:03:59;5.00;99.90
17998;DHT22;9124;48.144;17.098;2022-12-07T00:07:40;5.00;99.90
17998;DHT22;9124;48.144;17.098;2022-12-07T00:11:19;5.00;99.90
17998;DHT22;9124;48.144;17.098;2022-12-07T00:14:56;5.00;99.90
17998;DHT22;9124;48.144;17.098;2022-12-07T00:18:32;5.10;99.90
17998;DHT22;9124;48.144;17.098;2022-12-07T00:22:09;5.10;99.90
17998;DHT22;9124;48.144;17.098;2022-12-07T00:25:46;5.10;99.90
17998;DHT22;9124;48.144;17.098;2022-12-07T00:29:24;5.10;99.90
17998;DHT22;9124;48.144;17.098;2022-12-07T00:33:00;5.10;99.90
17998;DHT22;9124;48.144;17.098;2022-12-07T00:36:36;5.10;99.90
17998;DHT22;9124;48.144;17.098;2022-12-07T00:40:13;5.10;99.90
17998;DHT22;9124;48.144;17.098;2022-12-07T00:43:50;5.10;99.90
17998;DHT22;9124;48.144;17.098;2022-12-07T00:47:26;5.10;99.90
17998;DHT22;9124;48.144;17.098;2022-12-07T00:51:03;5.20;99.90
17998;DHT22;9124;48.144;17.098;2022-12-07T00:54:40;5.20;99.90
17998;DHT22;9124;48.144;17.098;2022-12-07T00:58:16;5.10;99.90
17998;DHT22;9124;48.144;17.098;2022-12-07T01:01:53;5.10;99.90
17998;DHT22;9124;48.144;17.098;2022-12-07T01:05:29;5.20;99.90
17998;DHT22;9124;48.144;17.098;2022-12-07T01:09:06;5.20;99.90
17998;DHT22;9124;48.144;17.098;2022-12-07T01:12:42;5.20;99.90
17998;DHT22;9124;48.144;17.098;2022-12-07T01:16:20;5.20;99.90
17998;DHT22;9124;48.144;17.098;2022-12-07T01:19:57;5.20;99.90
17998;DHT22;9124;48.144;17.098;2022-12-07T01:23:34;5.20;99.90
17998;DHT22;9124;48.144;17.098;2022-12-07T01:27:11;5.20;99.90
17998;DHT22;9124;48.144;17.098;2022-12-07T01:31:24;5.20;99.90
17998;DHT22;9124;48.144;17.098;2022-12-07T01:35:01;5.30;99.90
17998;DHT22;9124;48.144;17.098;2022-12-07T01:38:37;5.30;99.90
17998;DHT22;9124;48.144;17.098;2022-12-07T01:42:14;5.30;99.90
17998;DHT22;9124;48.144;17.098;2022-12-07T01:45:50;5.40;99.90
17998;DHT22;9124;48.144;17.098;2022-12-07T01:49:34;5.30;99.90
17998;DHT22;9124;48.144;17.098;2022-12-07T01:53:12;5.20;99.90
17998;DHT22;9124;48.144;17.098;2022-12-07T01:56:53;5.20;99.90
17998;DHT22;9124;48.144;17.098;2022-12-07T02:00:30;5.10;99.90
17998;DHT22;9124;48.144;17.098;2022-12-07T02:04:07;5.10;99.90
17998;DHT22;9124;48.144;17.098;2022-12-07T02:07:46;5.10;99.90
17998;DHT22;9124;48.144;17.098;2022-12-07T02:11:23;5.00;99.90
17998;DHT22;9124;48.144;17.098;2022-12-07T02:15:00;5.00;99.90
17998;DHT22;9124;48.144;17.098;2022-12-07T02:23:12;4.90;99.90
17998;DHT22;9124;48.144;17.098;2022-12-07T02:30:54;4.70;99.90
17998;DHT22;9124;48.144;17.098;2022-12-07T02:34:50;4.60;99.90
17998;DHT22;9124;48.144;17.098;2022-12-07T02:42:28;4.50;99.90
17998;DHT22;9124;48.144;17.098;2022-12-07T02:46:23;4.50;99.90
17998;DHT22;9124;48.144;17.098;2022-12-07T02:50:04;4.40;99.90
17998;DHT22;9124;48.144;17.098;2022-12-07T02:53:43;4.30;99.90
17998;DHT22;9124;48.144;17.098;2022-12-07T03:05:57;4.10;99.90
17998;DHT22;9124;48.144;17.098;2022-12-07T03:09:45;4.30;99.90
17998;DHT22;9124;48.144;17.098;2022-12-07T03:13:43;4.40;99.90
17998;DHT22;9124;48.144;17.098;2022-12-07T03:17:25;4.60;99.90
17998;DHT22;9124;48.144;17.098;2022-12-07T03:21:13;4.70;99.90
17998;DHT22;9124;48.144;17.098;2022-12-07T03:24:52;4.80;99.90
17998;DHT22;9124;48.144;17.098;2022-12-07T03:28:36;4.80;99.90
17998;DHT22;9124;48.144;17.098;2022-12-07T03:32:27;4.90;99.90
17998;DHT22;9124;48.144;17.098;2022-12-07T03:36:14;5.00;99.90
17998;DHT22;9124;48.144;17.098;2022-12-07T03:44:04;5.10;99.90
17998;DHT22;9124;48.144;17.098;2022-12-07T03:55:49;5.20;99.90
17998;DHT22;9124;48.144;17.098;2022-12-07T03:59:27;5.30;99.90
17998;DHT22;9124;48.144;17.098;2022-12-07T04:03:05;5.20;99.90
17998;DHT22;9124;48.144;17.098;2022-12-07T04:06:41;5.30;99.90
17998;DHT22;9124;48.144;17.098;2022-12-07T04:10:18;5.30;99.90
17998;DHT22;9124;48.144;17.098;2022-12-07T04:13:55;5.40;99.90
17998;DHT22;9124;48.144;17.098;2022-12-07T04:17:50;5.40;99.90
17998;DHT22;9124;48.144;17.098;2022-12-07T04:21:27;5.40;99.90
17998;DHT22;9124;48.144;17.098;2022-12-07T04:25:04;5.50;99.90
17998;DHT22;9124;48.144;17.098;2022-12-07T04:28:41;5.50;99.90
17998;DHT22;9124;48.144;17.098;2022-12-07T04:32:17;5.50;99.90
17998;DHT22;9124;48.144;17.098;2022-12-07T04:35:54;5.50;99.90
17998;DHT22;9124;48.144;17.098;2022-12-07T04:39:32;5.50;99.90
17998;DHT22;9124;48.144;17.098;2022-12-07T04:43:09;5.50;99.90
17998;DHT22;9124;48.144;17.098;2022-12-07T04:46:46;5.50;99.90
17998;DHT22;9124;48.144;17.098;2022-12-07T04:50:23;5.50;99.90
17998;DHT22;9124;48.144;17.098;2022-12-07T04:53:59;5.40;99.90
17998;DHT22;9124;48.144;17.098;2022-12-07T04:57:36;5.40;99.90
17998;DHT22;9124;48.144;17.098;2022-12-07T05:01:14;5.40;99.90
17998;DHT22;9124;48.144;17.098;2022-12-07T05:04:51;5.40;99.90
17998;DHT22;9124;48.144;17.098;2022-12-07T05:08:27;5.40;99.90
17998;DHT22;9124;48.144;17.098;2022-12-07T05:12:04;5.30;99.90
17998;DHT22;9124;48.144;17.098;2022-12-07T05:15:40;5.30;99.90
17998;DHT22;9124;48.144;17.098;2022-12-07T05:19:20;5.30;99.90
17998;DHT22;9124;48.144;17.098;2022-12-07T05:22:57;5.30;99.90
17998;DHT22;9124;48.144;17.098;2022-12-07T05:26:35;5.30;99.90
17998;DHT22;9124;48.144;17.098;2022-12-07T05:30:11;5.20;99.90
17998;DHT22;9124;48.144;17.098;2022-12-07T05:33:48;5.20;99.90
17998;DHT22;9124;48.144;17.098;2022-12-07T05:37:24;5.20;99.90
17998;DHT22;9124;48.144;17.098;2022-12-07T05:41:03;5.20;99.90
17998;DHT22;9124;48.144;17.098;2022-12-07T05:44:42;5.20;99.90
17998;DHT22;9124;48.144;17.098;2022-12-07T05:48:19;5.20;99.90
17998;DHT22;9124;48.144;17.098;2022-12-07T05:51:55;5.30;99.90
17998;DHT22;9124;48.144;17.098;2022-12-07T05:55:32;5.20;99.90
17998;DHT22;9124;48.144;17.098;2022-12-07T05:59:09;5.20;99.90
17998;DHT22;9124;48.144;17.098;2022-12-07T06:03:01;5.20;99.90
17998;DHT22;9124;48.144;17.098;2022-12-07T06:06:38;5.20;99.90
17998;DHT22;9124;48.144;17.098;2022-12-07T06:10:15;5.20;99.90
17998;DHT22;9124;48.144;17.098;2022-12-07T06:13:51;5.20;99.90
17998;DHT22;9124;48.144;17.098;2022-12-07T06:17:28;5.20;99.90
17998;DHT22;9124;48.144;17.098;2022-12-07T06:21:05;5.20;99.90
17998;DHT22;9124;48.144;17.098;2022-12-07T06:24:41;5.30;99.90
17998;DHT22;9124;48.144;17.098;2022-12-07T06:28:18;5.20;99.90
17998;DHT22;9124;48.144;17.098;2022-12-07T06:31:54;5.20;99.90
17998;DHT22;9124;48.144;17.098;2022-12-07T06:35:33;5.30;99.90
17998;DHT22;9124;48.144;17.098;2022-12-07T06:39:10;5.40;99.90
17998;DHT22;9124;48.144;17.098;2022-12-07T06:42:46;5.50;99.90
17998;DHT22;9124;48.144;17.098;2022-12-07T06:46:23;5.50;99.90
17998;DHT22;9124;48.144;17.098;2022-12-07T06:50:00;5.60;99.90
17998;DHT22;9124;48.144;17.098;2022-12-07T06:53:37;5.70;99.90
17998;DHT22;9124;48.144;17.098;2022-12-07T06:57:13;5.70;99.90
17998;DHT22;9124;48.144;17.098;2022-12-07T07:00:50;5.80;99.90
17998;DHT22;9124;48.144;17.098;2022-12-07T07:04:26;5.90;99.90
17998;DHT22;9124;48.144;17.098;2022-12-07T07:08:03;5.90;99.90
17998;DHT22;9124;48.144;17.098;2022-12-07T07:11:39;5.90;99.90
17998;DHT22;9124;48.144;17.098;2022-12-07T07:15:16;5.90;99.90
17998;DHT22;9124;48.144;17.098;2022-12-07T07:18:52;5.90;99.90
17998;DHT22;9124;48.144;17.098;2022-12-07T07:22:28;6.00;99.90
17998;DHT22;9124;48.144;17.098;2022-12-07T07:26:04;6.20;99.90
17998;DHT22;9124;48.144;17.098;2022-12-07T07:29:41;6.40;99.90
17998;DHT22;9124;48.144;17.098;2022-12-07T07:33:17;6.50;99.90
17998;DHT22;9124;48.144;17.098;2022-12-07T07:36:53;6.60;99.90
17998;DHT22;9124;48.144;17.098;2022-12-07T07:40:30;6.60;99.90
17998;DHT22;9124;48.144;17.098;2022-12-07T07:44:06;6.50;99.90
17998;DHT22;9124;48.144;17.098;2022-12-07T07:47:42;6.50;99.90
17998;DHT22;9124;48.144;17.098;2022-12-07T07:51:18;6.40;99.90
17998;DHT22;9124;48.144;17.098;2022-12-07T07:54:55;6.40;99.90
17998;DHT22;9124;48.144;17.098;2022-12-07T07:58:31;6.50;99.90
17998;DHT22;9124;48.144;17.098;2022-12-07T08:02:14;6.50;99.90
17998;DHT22;9124;48.144;17.098;2022-12-07T08:05:51;6.40;99.90
17998;DHT22;9124;48.144;17.098;2022-12-07T08:09:27;6.40;99.90
17998;DHT22;9124;48.144;17.098;2022-12-07T08:13:04;6.50;99.90
17998;DHT22;9124;48.144;17.098;2022-12-07T08:16:52;6.50;99.90
17998;DHT22;9124;48.144;17.098;2022-12-07T08:20:31;6.50;99.90
17998;DHT22;9124;48.144;17.098;2022-12-07T08:24:09;6.50;99.90
17998;DHT22;9124;48.144;17.098;2022-12-07T08:27:45;6.50;99.90
17998;DHT22;9124;48.144;17.098;2022-12-07T08:31:22;6.60;99.90
17998;DHT22;9124;48.144;17.098;2022-12-07T08:34:58;6.60;99.90
17998;DHT22;9124;48.144;17.098;2022-12-07T08:38:36;6.60;99.90
17998;DHT22;9124;48.144;17.098;2022-12-07T08:42:12;6.50;99.90
17998;DHT22;9124;48.144;17.098;2022-12-07T08:49:43;6.50;99.90
17998;DHT22;9124;48.144;17.098;2022-12-07T08:53:21;6.50;99.90
17998;DHT22;9124;48.144;17.098;2022-12-07T08:56:58;6.60;99.90
17998;DHT22;9124;48.144;17.098;2022-12-07T09:00:34;6.70;99.90
17998;DHT22;9124;48.144;17.098;2022-12-07T09:04:11;6.80;99.90
17998;DHT22;9124;48.144;17.098;2022-12-07T09:07:51;6.80;99.90
17998;DHT22;9124;48.144;17.098;2022-12-07T09:11:29;6.70;99.90
17998;DHT22;9124;48.144;17.098;2022-12-07T09:15:06;6.60;99.90
17998;DHT22;9124;48.144;17.098;2022-12-07T09:18:43;6.60;99.90
17998;DHT22;9124;48.144;17.098;2022-12-07T09:22:19;6.80;99.90
17998;DHT22;9124;48.144;17.098;2022-12-07T09:25:59;7.10;99.90
17998;DHT22;9124;48.144;17.098;2022-12-07T09:29:36;7.20;99.90
17998;DHT22;9124;48.144;17.098;2022-12-07T09:33:13;7.20;99.90
17998;DHT22;9124;48.144;17.098;2022-12-07T09:36:49;7.30;99.90
17998;DHT22;9124;48.144;17.098;2022-12-07T09:40:28;7.40;99.90
17998;DHT22;9124;48.144;17.098;2022-12-07T09:44:18;7.40;99.90
17998;DHT22;9124;48.144;17.098;2022-12-07T09:47:58;7.50;99.90
17998;DHT22;9124;48.144;17.098;2022-12-07T09:51:35;7.70;99.90
17998;DHT22;9124;48.144;17.098;2022-12-07T09:55:14;7.80;99.90
17998;DHT22;9124;48.144;17.098;2022-12-07T09:59:01;8.10;99.90
17998;DHT22;9124;48.144;17.098;2022-12-07T10:02:44;8.50;99.90
17998;DHT22;9124;48.144;17.098;2022-12-07T10:06:23;9.50;99.90
17998;DHT22;9124;48.144;17.098;2022-12-07T10:09:59;9.90;99.90
17998;DHT22;9124;48.144;17.098;2022-12-07T10:13:47;10.30;99.90
17998;DHT22;9124;48.144;17.098;2022-12-07T10:17:50;10.70;99.90
17998;DHT22;9124;48.144;17.098;2022-12-07T10:21:28;11.00;99.90
17998;DHT22;9124;48.144;17.098;2022-12-07T10:25:09;11.30;99.90
17998;DHT22;9124;48.144;17.098;2022-12-07T10:28:56;11.80;99.90
17998;DHT22;9124;48.144;17.098;2022-12-07T10:32:36;12.00;99.90
17998;DHT22;9124;48.144;17.098;2022-12-07T10:36:29;11.80;99.90
17998;DHT22;9124;48.144;17.098;2022-12-07T10:40:33;11.70;99.90
17998;DHT22;9124;48.144;17.098;2022-12-07T10:44:22;11.00;99.10
17998;DHT22;9124;48.144;17.098;2022-12-07T10:56:05;13.00;99.90
17998;DHT22;9124;48.144;17.098;2022-12-07T11:00:15;12.50;96.40
17998;DHT22;9124;48.144;17.098;2022-12-07T11:04:31;12.10;96.30
17998;DHT22;9124;48.144;17.098;2022-12-07T11:16:05;11.10;95.00
17998;DHT22;9124;48.144;17.098;2022-12-07T11:20:16;11.10;94.20
17998;DHT22;9124;48.144;17.098;2022-12-07T11:24:01;10.80;94.00
17998;DHT22;9124;48.144;17.098;2022-12-07T11:35:51;10.30;93.10
17998;DHT22;9124;48.144;17.098;2022-12-07T11:39:41;9.90;92.70
17998;DHT22;9124;48.144;17.098;2022-12-07T11:43:28;9.60;91.60
17998;DHT22;9124;48.144;17.098;2022-12-07T11:51:08;9.20;91.30
17998;DHT22;9124;48.144;17.098;2022-12-07T11:54:47;9.00;90.80
17998;DHT22;9124;48.144;17.098;2022-12-07T12:02:29;8.50;90.50
17998;DHT22;9124;48.144;17.098;2022-12-07T12:06:08;8.20;90.30
17998;DHT22;9124;48.144;17.098;2022-12-07T12:10:24;8.10;90.50
17998;DHT22;9124;48.144;17.098;2022-12-07T12:21:55;7.80;90.50
17998;DHT22;9124;48.144;17.098;2022-12-07T12:25:54;7.80;90.50
17998;DHT22;9124;48.144;17.098;2022-12-07T12:29:41;7.80;90.50
17998;DHT22;9124;48.144;17.098;2022-12-07T12:33:28;7.80;90.50
17998;DHT22;9124;48.144;17.098;2022-12-07T12:45:30;7.90;90.20
17998;DHT22;9124;48.144;17.098;2022-12-07T12:49:35;8.00;90.40
17998;DHT22;9124;48.144;17.098;2022-12-07T12:57:20;8.10;90.30
17998;DHT22;9124;48.144;17.098;2022-12-07T13:01:36;8.20;90.20
17998;DHT22;9124;48.144;17.098;2022-12-07T13:05:23;8.00;90.00
17998;DHT22;9124;48.144;17.098;2022-12-07T13:09:03;7.60;89.20
17998;DHT22;9124;48.144;17.098;2022-12-07T13:12:41;7.30;88.70
17998;DHT22;9124;48.144;17.098;2022-12-07T13:19:58;7.10;88.70
17998;DHT22;9124;48.144;17.098;2022-12-07T13:27:21;6.90;88.40
17998;DHT22;9124;48.144;17.098;2022-12-07T13:34:37;6.70;88.30
17998;DHT22;9124;48.144;17.098;2022-12-07T13:38:33;6.60;88.30
17998;DHT22;9124;48.144;17.098;2022-12-07T13:42:26;6.50;88.30
17998;DHT22;9124;48.144;17.098;2022-12-07T13:46:07;6.40;88.30
17998;DHT22;9124;48.144;17.098;2022-12-07T13:49:54;6.30;88.90
17998;DHT22;9124;48.144;17.098;2022-12-07T13:53:31;6.30;88.40
17998;DHT22;9124;48.144;17.098;2022-12-07T13:57:08;6.20;88.50
17998;DHT22;9124;48.144;17.098;2022-12-07T14:00:44;6.20;88.50
17998;DHT22;9124;48.144;17.098;2022-12-07T14:04:37;6.30;88.70
17998;DHT22;9124;48.144;17.098;2022-12-07T14:11:52;6.10;88.20
17998;DHT22;9124;48.144;17.098;2022-12-07T14:15:33;6.00;88.10
17998;DHT22;9124;48.144;17.098;2022-12-07T14:19:51;5.90;88.00
17998;DHT22;9124;48.144;17.098;2022-12-07T14:23:31;5.90;88.00
17998;DHT22;9124;48.144;17.098;2022-12-07T14:27:18;5.80;88.00
17998;DHT22;9124;48.144;17.098;2022-12-07T14:30:55;5.80;88.10
17998;DHT22;9124;48.144;17.098;2022-12-07T14:34:32;5.90;88.30
17998;DHT22;9124;48.144;17.098;2022-12-07T14:38:08;5.80;88.30
17998;DHT22;9124;48.144;17.098;2022-12-07T14:41:45;5.70;88.30
17998;DHT22;9124;48.144;17.098;2022-12-07T14:45:27;5.60;88.30
17998;DHT22;9124;48.144;17.098;2022-12-07T14:49:04;5.50;88.30
17998;DHT22;9124;48.144;17.098;2022-12-07T14:52:43;5.50;88.60
17998;DHT22;9124;48.144;17.098;2022-12-07T14:56:20;5.40;88.60
17998;DHT22;9124;48.144;17.098;2022-12-07T14:59:56;5.30;88.80
17998;DHT22;9124;48.144;17.098;2022-12-07T15:03:34;5.20;88.80
17998;DHT22;9124;48.144;17.098;2022-12-07T15:07:20;5.10;89.00
17998;DHT22;9124;48.144;17.098;2022-12-07T15:10:57;5.10;89.30
17998;DHT22;9124;48.144;17.098;2022-12-07T15:14:33;5.10;89.50
17998;DHT22;9124;48.144;17.098;2022-12-07T15:18:10;5.10;89.60
17998;DHT22;9124;48.144;17.098;2022-12-07T15:21:46;5.10;89.70
17998;DHT22;9124;48.144;17.098;2022-12-07T15:25:22;5.00;89.80
17998;DHT22;9124;48.144;17.098;2022-12-07T15:28:59;5.00;89.90
17998;DHT22;9124;48.144;17.098;2022-12-07T15:32:35;5.00;90.00
17998;DHT22;9124;48.144;17.098;2022-12-07T15:36:19;4.90;90.00
17998;DHT22;9124;48.144;17.098;2022-12-07T15:39:57;4.80;90.00
17998;DHT22;9124;48.144;17.098;2022-12-07T15:43:33;4.70;90.10
17998;DHT22;9124;48.144;17.098;2022-12-07T15:47:33;4.70;90.20
17998;DHT22;9124;48.144;17.098;2022-12-07T15:51:10;4.70;90.30
17998;DHT22;9124;48.144;17.098;2022-12-07T15:54:47;4.80;90.40
17998;DHT22;9124;48.144;17.098;2022-12-07T15:58:23;4.90;90.60
17998;DHT22;9124;48.144;17.098;2022-12-07T16:02:00;5.00;90.70
17998;DHT22;9124;48.144;17.098;2022-12-07T16:05:36;5.00;91.00
17998;DHT22;9124;48.144;17.098;2022-12-07T16:09:12;5.10;90.70
17998;DHT22;9124;48.144;17.098;2022-12-07T16:12:49;5.10;90.70
17998;DHT22;9124;48.144;17.098;2022-12-07T16:16:25;5.10;90.70
17998;DHT22;9124;48.144;17.098;2022-12-07T16:20:03;5.00;90.70
17998;DHT22;9124;48.144;17.098;2022-12-07T16:23:40;5.00;90.70
17998;DHT22;9124;48.144;17.098;2022-12-07T16:27:16;5.00;90.70
17998;DHT22;9124;48.144;17.098;2022-12-07T16:31:04;5.10;90.90
17998;DHT22;9124;48.144;17.098;2022-12-07T16:34:43;5.20;91.10
17998;DHT22;9124;48.144;17.098;2022-12-07T16:38:19;5.30;91.20
17998;DHT22;9124;48.144;17.098;2022-12-07T16:41:56;5.40;91.20
17998;DHT22;9124;48.144;17.098;2022-12-07T16:45:32;5.50;91.30
17998;DHT22;9124;48.144;17.098;2022-12-07T16:49:12;5.50;91.30
17998;DHT22;9124;48.144;17.098;2022-12-07T16:52:49;5.70;91.40
17998;DHT22;9124;48.144;17.098;2022-12-07T16:56:25;5.90;91.50
17998;DHT22;9124;48.144;17.098;2022-12-07T17:00:03;5.90;91.60
17998;DHT22;9124;48.144;17.098;2022-12-07T17:03:40;5.80;91.20
17998;DHT22;9124;48.144;17.098;2022-12-07T17:07:16;5.80;91.20
17998;DHT22;9124;48.144;17.098;2022-12-07T17:10:53;5.80;91.30
17998;DHT22;9124;48.144;17.098;2022-12-07T17:14:29;5.70;91.20
17998;DHT22;9124;48.144;17.098;2022-12-07T17:18:30;5.70;91.30
17998;DHT22;9124;48.144;17.098;2022-12-07T17:22:07;5.70;91.20
17998;DHT22;9124;48.144;17.098;2022-12-07T17:25:43;5.70;91.30
17998;DHT22;9124;48.144;17.098;2022-12-07T17:29:20;5.60;91.30
17998;DHT22;9124;48.144;17.098;2022-12-07T17:32:56;5.60;91.40
17998;DHT22;9124;48.144;17.098;2022-12-07T17:36:33;5.60;91.40
17998;DHT22;9124;48.144;17.098;2022-12-07T17:40:10;5.60;91.40
17998;DHT22;9124;48.144;17.098;2022-12-07T17:43:46;5.60;91.50
17998;DHT22;9124;48.144;17.098;2022-12-07T17:47:23;5.60;91.50
17998;DHT22;9124;48.144;17.098;2022-12-07T17:50:59;5.60;91.60
17998;DHT22;9124;48.144;17.098;2022-12-07T17:54:55;5.60;91.60
17998;DHT22;9124;48.144;17.098;2022-12-07T17:58:31;5.60;91.60
17998;DHT22;9124;48.144;17.098;2022-12-07T18:02:09;5.50;91.60
17998;DHT22;9124;48.144;17.098;2022-12-07T18:05:46;5.60;91.70
17998;DHT22;9124;48.144;17.098;2022-12-07T18:09:23;5.60;91.60
17998;DHT22;9124;48.144;17.098;2022-12-07T18:13:00;5.50;91.60
17998;DHT22;9124;48.144;17.098;2022-12-07T18:16:55;5.40;91.50
17998;DHT22;9124;48.144;17.098;2022-12-07T18:20:32;5.30;91.50
17998;DHT22;9124;48.144;17.098;2022-12-07T18:24:13;5.20;91.50
17998;DHT22;9124;48.144;17.098;2022-12-07T18:27:50;5.10;91.60
17998;DHT22;9124;48.144;17.098;2022-12-07T18:31:27;5.10;91.70
17998;DHT22;9124;48.144;17.098;2022-12-07T18:35:04;5.10;91.70
17998;DHT22;9124;48.144;17.098;2022-12-07T18:38:41;5.10;91.70
17998;DHT22;9124;48.144;17.098;2022-12-07T18:42:17;5.10;91.70
17998;DHT22;9124;48.144;17.098;2022-12-07T18:45:54;5.00;91.70
17998;DHT22;9124;48.144;17.098;2022-12-07T18:49:30;5.00;91.70
17998;DHT22;9124;48.144;17.098;2022-12-07T18:53:07;5.00;91.80
17998;DHT22;9124;48.144;17.098;2022-12-07T18:56:45;5.10;91.80
17998;DHT22;9124;48.144;17.098;2022-12-07T19:00:23;5.10;91.80
17998;DHT22;9124;48.144;17.098;2022-12-07T19:03:59;5.20;91.90
17998;DHT22;9124;48.144;17.098;2022-12-07T19:07:36;5.30;91.90
17998;DHT22;9124;48.144;17.098;2022-12-07T19:11:23;5.30;91.90
17998;DHT22;9124;48.144;17.098;2022-12-07T19:15:18;5.40;91.90
17998;DHT22;9124;48.144;17.098;2022-12-07T19:18:55;5.50;91.90
17998;DHT22;9124;48.144;17.098;2022-12-07T19:22:31;5.50;91.80
17998;DHT22;9124;48.144;17.098;2022-12-07T19:26:08;5.50;91.80
17998;DHT22;9124;48.144;17.098;2022-12-07T19:29:45;5.50;91.80
17998;DHT22;9124;48.144;17.098;2022-12-07T19:33:22;5.50;91.80
17998;DHT22;9124;48.144;17.098;2022-12-07T19:36:58;5.50;91.70
17998;DHT22;9124;48.144;17.098;2022-12-07T19:40:35;5.50;91.60
17998;DHT22;9124;48.144;17.098;2022-12-07T19:44:21;5.50;91.70
17998;DHT22;9124;48.144;17.098;2022-12-07T19:48:00;5.50;91.60
17998;DHT22;9124;48.144;17.098;2022-12-07T19:51:37;5.40;91.60
17998;DHT22;9124;48.144;17.098;2022-12-07T19:55:13;5.50;91.60
17998;DHT22;9124;48.144;17.098;2022-12-07T19:58:49;5.50;91.60
17998;DHT22;9124;48.144;17.098;2022-12-07T20:02:26;5.40;91.50
17998;DHT22;9124;48.144;17.098;2022-12-07T20:06:11;5.40;91.60
17998;DHT22;9124;48.144;17.098;2022-12-07T20:09:48;5.40;91.60
17998;DHT22;9124;48.144;17.098;2022-12-07T20:13:25;5.40;91.50
17998;DHT22;9124;48.144;17.098;2022-12-07T20:17:04;5.40;91.50
17998;DHT22;9124;48.144;17.098;2022-12-07T20:20:40;5.40;91.50
17998;DHT22;9124;48.144;17.098;2022-12-07T20:24:21;5.40;91.50
17998;DHT22;9124;48.144;17.098;2022-12-07T20:27:58;5.40;91.50
17998;DHT22;9124;48.144;17.098;2022-12-07T20:31:34;5.40;91.50
17998;DHT22;9124;48.144;17.098;2022-12-07T20:35:11;5.40;91.50
17998;DHT22;9124;48.144;17.098;2022-12-07T20:38:47;5.40;91.50
17998;DHT22;9124;48.144;17.098;2022-12-07T20:42:24;5.50;91.50
17998;DHT22;9124;48.144;17.098;2022-12-07T20:46:12;5.50;91.50
17998;DHT22;9124;48.144;17.098;2022-12-07T20:49:50;5.40;91.40
17998;DHT22;9124;48.144;17.098;2022-12-07T20:53:26;5.40;91.50
17998;DHT22;9124;48.144;17.098;2022-12-07T20:57:03;5.40;91.40
17998;DHT22;9124;48.144;17.098;2022-12-07T21:00:39;5.40;91.50
17998;DHT22;9124;48.144;17.098;2022-12-07T21:04:16;5.30;91.50
17998;DHT22;9124;48.144;17.098;2022-12-07T21:07:53;5.30;91.60
17998;DHT22;9124;48.144;17.098;2022-12-07T21:11:30;5.30;91.60
17998;DHT22;9124;48.144;17.098;2022-12-07T21:15:07;5.30;91.50
17998;DHT22;9124;48.144;17.098;2022-12-07T21:18:45;5.10;91.40
17998;DHT22;9124;48.144;17.098;2022-12-07T21:22:23;4.90;91.40
17998;DHT22;9124;48.144;17.098;2022-12-07T21:25:59;4.80;91.50
17998;DHT22;9124;48.144;17.098;2022-12-07T21:29:36;4.70;91.60
17998;DHT22;9124;48.144;17.098;2022-12-07T21:33:12;4.60;91.60
17998;DHT22;9124;48.144;17.098;2022-12-07T21:36:49;4.50;91.60
17998;DHT22;9124;48.144;17.098;2022-12-07T21:40:25;4.40;91.60
17998;DHT22;9124;48.144;17.098;2022-12-07T21:44:05;4.30;91.70
17998;DHT22;9124;48.144;17.098;2022-12-07T21:47:42;4.30;91.70
17998;DHT22;9124;48.144;17.098;2022-12-07T21:51:20;4.30;91.80
17998;DHT22;9124;48.144;17.098;2022-12-07T21:54:57;4.20;91.80
17998;DHT22;9124;48.144;17.098;2022-12-07T21:58:33;4.20;91.80
17998;DHT22;9124;48.144;17.098;2022-12-07T22:02:13;4.20;91.90
17998;DHT22;9124;48.144;17.098;2022-12-07T22:05:50;4.20;92.00
17998;DHT22;9124;48.144;17.098;2022-12-07T22:09:26;4.20;92.10
17998;DHT22;9124;48.144;17.098;2022-12-07T22:13:05;4.30;92.10
17998;DHT22;9124;48.144;17.098;2022-12-07T22:16:41;4.30;92.20
17998;DHT22;9124;48.144;17.098;2022-12-07T22:20:20;4.30;92.20
17998;DHT22;9124;48.144;17.098;2022-12-07T22:23:56;4.30;92.30
17998;DHT22;9124;48.144;17.098;2022-12-07T22:27:33;4.40;92.40
17998;DHT22;9124;48.144;17.098;2022-12-07T22:31:12;4.40;92.40
17998;DHT22;9124;48.144;17.098;2022-12-07T22:34:49;4.40;92.40
17998;DHT22;9124;48.144;17.098;2022-12-07T22:38:25;4.40;92.50
17998;DHT22;9124;48.144;17.098;2022-12-07T22:42:01;4.40;92.50
17998;DHT22;9124;48.144;17.098;2022-12-07T22:45:38;4.40;92.50
17998;DHT22;9124;48.144;17.098;2022-12-07T22:49:14;4.30;92.50
17998;DHT22;9124;48.144;17.098;2022-12-07T22:52:52;4.30;92.50
17998;DHT22;9124;48.144;17.098;2022-12-07T22:56:33;4.20;92.40
17998;DHT22;9124;48.144;17.098;2022-12-07T23:00:10;4.10;92.40
17998;DHT22;9124;48.144;17.098;2022-12-07T23:04:07;4.00;92.40
17998;DHT22;9124;48.144;17.098;2022-12-07T23:07:44;4.00;92.50
17998;DHT22;9124;48.144;17.098;2022-12-07T23:11:23;4.00;92.60
17998;DHT22;9124;48.144;17.098;2022-12-07T23:15:19;4.00;92.60
17998;DHT22;9124;48.144;17.098;2022-12-07T23:18:56;3.90;92.70
17998;DHT22;9124;48.144;17.098;2022-12-07T23:22:32;3.90;92.70
17998;DHT22;9124;48.144;17.098;2022-12-07T23:26:10;3.80;92.80
17998;DHT22;9124;48.144;17.098;2022-12-07T23:29:47;3.80;92.90
17998;DHT22;9124;48.144;17.098;2022-12-07T23:33:23;3.90;93.00
17998;DHT22;9124;48.144;17.098;2022-12-07T23:37:00;3.90;93.10
17998;DHT22;9124;48.144;17.098;2022-12-07T23:40:36;4.00;93.20
17998;DHT22;9124;48.144;17.098;2022-12-07T23:44:13;4.00;93.20
17998;DHT22;9124;48.144;17.098;2022-12-07T23:47:49;4.00;93.30
17998;DHT22;9124;48.144;17.098;2022-12-07T23:51:25;4.00;93.30
17998;DHT22;9124;48.144;17.098;2022-12-07T23:55:03;4.10;93.40
17998;DHT22;9124;48.144;17.098;2022-12-07T23:58:39;4.00;93.40
